Terminal Aerodrome Forecast
Issued by NWS

Home | Current Version | Previous Version | Text Only | Print | Product List | Glossary On
Versions: 1 2 3 4 5 6 7 8 9 10 11 12 13 14 15 16 17 18 19 20 21 22 23 24 25 26 27 28 29 30 31 32 33 34 35 36 37 38 39 40 41 42 43 44 45 46 47 48
895
FTUS46 KLOX 232333
TAFLAX
TAF
KLAX 232333Z 2400/2506 26017G25KT P6SM VCSH SCT040
     FM240500 27015KT P6SM SCT050
     FM240900 32008KT P6SM BKN050
     FM241300 04006KT P6SM BKN050
     FM242000 26010KT P6SM BKN050
     FM250300 VRB03KT P6SM SCT050=

USA.gov is the U.S. government's official web portal to all federal, state and local government web resources and services.